createdAt,value
2023-05-22T00:00:41.308Z,94.36
2023-05-22T00:03:13.296Z,94.32
2023-05-22T00:05:46.022Z,94.43
2023-05-22T00:08:17.725Z,94.32
2023-05-22T00:10:49.724Z,94.45
2023-05-22T00:13:21.653Z,94.47
2023-05-22T00:15:54.702Z,94.38
2023-05-22T00:18:27.299Z,94.20
2023-05-22T00:20:59.225Z,94.27
2023-05-22T00:23:32.867Z,94.36
2023-05-22T00:26:05.163Z,94.54
2023-05-22T00:28:37.154Z,94.72
2023-05-22T00:31:09.152Z,94.71
2023-05-22T00:33:41.301Z,94.85
2023-05-22T00:36:13.217Z,95.08
2023-05-22T00:38:45.553Z,95.10
2023-05-22T00:41:17.384Z,95.06
2023-05-22T00:43:51.513Z,95.04
2023-05-22T00:46:24.673Z,94.82
2023-05-22T00:48:56.685Z,94.61
2023-05-22T00:51:28.679Z,94.61
2023-05-22T00:54:01.216Z,94.49
2023-05-22T00:56:33.547Z,94.33
2023-05-22T00:59:05.376Z,94.54
2023-05-22T01:01:39.083Z,94.59
2023-05-22T01:04:13.121Z,94.68
2023-05-22T01:06:46.855Z,94.91
2023-05-22T01:09:18.745Z,95.22
2023-05-22T01:12:09.083Z,95.07
2023-05-22T01:14:49.935Z,95.50
2023-05-22T01:17:32.662Z,95.71
2023-05-22T01:20:19.604Z,95.62
2023-05-22T01:23:12.405Z,95.43
2023-05-22T01:25:53.635Z,95.43
2023-05-22T01:28:43.503Z,95.46
2023-05-22T01:31:17.535Z,95.46
2023-05-22T01:33:52.606Z,95.56
2023-05-22T01:36:27.218Z,95.41
2023-05-22T01:39:01.744Z,95.09
2023-05-22T01:41:36.857Z,94.91
2023-05-22T01:44:08.727Z,94.51
2023-05-22T01:46:41.343Z,94.33
2023-05-22T01:49:13.213Z,94.25
2023-05-22T01:51:51.086Z,94.43
2023-05-22T01:54:43.535Z,94.42
2023-05-22T01:57:22.184Z,94.29
2023-05-22T02:00:11.427Z,94.17
2023-05-22T02:02:54.589Z,94.22
2023-05-22T02:05:26.971Z,94.52
2023-05-22T02:07:59.410Z,94.61
2023-05-22T02:10:31.621Z,94.63
2023-05-22T02:13:05.273Z,94.61
2023-05-22T02:15:37.106Z,94.65
2023-05-22T02:18:13.226Z,94.90
2023-05-22T02:20:47.602Z,95.08
2023-05-22T02:23:19.534Z,95.35
2023-05-22T02:25:51.532Z,95.45
2023-05-22T02:28:23.635Z,95.57
2023-05-22T02:30:55.738Z,95.64
2023-05-22T02:33:29.639Z,96.10
2023-05-22T02:36:01.779Z,95.98
2023-05-22T02:38:34.167Z,95.78
2023-05-22T02:41:08.922Z,95.61
2023-05-22T02:43:40.775Z,95.27
2023-05-22T02:46:12.701Z,95.11
2023-05-22T02:48:45.788Z,95.03
2023-05-22T02:51:17.778Z,95.09
2023-05-22T02:53:49.669Z,95.07
2023-05-22T02:56:22.312Z,95.25
2023-05-22T02:58:54.243Z,95.22
2023-05-22T03:01:27.782Z,95.24
2023-05-22T03:04:00.201Z,95.36
2023-05-22T03:06:32.526Z,95.41
2023-05-22T03:09:04.613Z,95.12
2023-05-22T03:11:36.728Z,94.72
2023-05-22T03:14:08.841Z,94.33
2023-05-22T03:16:41.865Z,94.06
2023-05-22T03:19:15.898Z,93.72
2023-05-22T03:21:49.824Z,93.32
2023-05-22T03:24:21.832Z,92.84
2023-05-22T03:26:53.903Z,92.13
2023-05-22T03:29:28.573Z,91.95
2023-05-22T03:32:02.523Z,91.21
2023-05-22T03:34:35.057Z,91.01
2023-05-22T03:37:07.004Z,90.25
2023-05-22T03:39:40.077Z,89.41
2023-05-22T03:42:13.862Z,89.37
2023-05-22T03:44:46.058Z,89.33
2023-05-22T03:47:17.989Z,88.15
2023-05-22T03:49:50.102Z,87.38
2023-05-22T03:52:22.749Z,85.04
2023-05-22T03:54:54.560Z,84.24
2023-05-22T03:57:26.464Z,83.40
2023-05-22T03:59:59.987Z,81.69
2023-05-22T04:02:32.134Z,80.12
2023-05-22T04:05:04.477Z,79.41
2023-05-22T04:07:36.816Z,78.96
2023-05-22T04:10:09.071Z,78.20
2023-05-22T04:12:41.391Z,78.26
2023-05-22T04:15:13.098Z,77.38
2023-05-22T04:17:45.736Z,77.33
2023-05-22T04:20:18.231Z,76.85
2023-05-22T04:22:51.037Z,76.51
2023-05-22T04:25:23.171Z,76.74
2023-05-22T04:27:56.977Z,76.17
2023-05-22T04:30:28.725Z,76.69
2023-05-22T04:33:01.146Z,76.77
2023-05-22T04:35:35.365Z,76.54
2023-05-22T04:38:08.718Z,77.02
2023-05-22T04:40:40.778Z,76.67
2023-05-22T04:43:12.802Z,76.92
2023-05-22T04:45:44.627Z,76.35
2023-05-22T04:48:16.731Z,75.95
2023-05-22T04:50:48.502Z,75.73
2023-05-22T04:53:20.296Z,76.37
2023-05-22T04:55:52.117Z,76.91
2023-05-22T04:58:24.516Z,75.98
2023-05-22T05:00:58.086Z,74.99
2023-05-22T05:03:30.760Z,74.25
2023-05-22T05:06:02.862Z,74.42
2023-05-22T05:08:35.184Z,73.89
2023-05-22T05:11:06.989Z,74.14
2023-05-22T05:13:39.561Z,73.95
2023-05-22T05:16:12.838Z,73.05
2023-05-22T05:18:44.613Z,72.73
2023-05-22T05:21:16.763Z,71.93
2023-05-22T05:23:52.272Z,71.11
2023-05-22T05:26:24.292Z,69.80
2023-05-22T05:28:59.667Z,69.00
2023-05-22T05:31:33.283Z,69.54
2023-05-22T05:34:22.626Z,68.16
2023-05-22T05:37:06.598Z,67.54
2023-05-22T05:39:38.600Z,67.40
2023-05-22T05:42:12.250Z,66.99
2023-05-22T05:44:44.135Z,67.06
2023-05-22T05:47:17.910Z,66.12
2023-05-22T05:49:49.793Z,66.18
2023-05-22T05:52:24.886Z,65.93
2023-05-22T05:54:56.768Z,65.09
2023-05-22T05:57:29.684Z,63.58
2023-05-22T06:00:01.724Z,63.48
2023-05-22T06:02:48.220Z,62.46
2023-05-22T06:05:30.227Z,62.22
2023-05-22T06:08:04.512Z,61.99
2023-05-22T06:10:36.402Z,61.95
2023-05-22T06:13:18.794Z,61.82
2023-05-22T06:15:50.660Z,60.34
2023-05-22T06:18:23.779Z,61.11
2023-05-22T06:20:58.177Z,61.87
2023-05-22T06:23:31.099Z,62.40
2023-05-22T06:26:05.252Z,62.37
2023-05-22T06:28:37.556Z,61.60
2023-05-22T06:31:10.002Z,61.02
2023-05-22T06:33:45.188Z,58.88
2023-05-22T06:36:17.760Z,58.18
2023-05-22T06:38:49.810Z,57.61
2023-05-22T06:41:23.415Z,56.53
2023-05-22T06:43:55.233Z,56.68
2023-05-22T06:46:29.189Z,55.21
2023-05-22T06:49:02.966Z,55.12
2023-05-22T06:51:42.282Z,55.10
2023-05-22T06:54:15.929Z,53.95
2023-05-22T06:56:49.376Z,54.45
2023-05-22T06:59:22.311Z,55.17
2023-05-22T07:01:55.812Z,55.08
2023-05-22T07:04:35.642Z,56.18
2023-05-22T07:07:10.216Z,56.32
2023-05-22T07:09:42.148Z,55.44
2023-05-22T07:12:14.186Z,54.79
2023-05-22T07:14:45.997Z,53.75
2023-05-22T07:17:18.886Z,53.43
2023-05-22T07:19:50.806Z,53.23
2023-05-22T07:22:22.976Z,53.33
2023-05-22T07:24:55.277Z,53.32
2023-05-22T07:27:27.800Z,52.38
2023-05-22T07:29:59.758Z,52.40
2023-05-22T07:32:32.261Z,51.59
2023-05-22T07:35:05.041Z,51.76
2023-05-22T07:37:39.080Z,51.17
2023-05-22T07:40:11.749Z,51.13
2023-05-22T07:42:44.163Z,50.87
2023-05-22T07:45:16.368Z,50.56
2023-05-22T07:47:48.516Z,50.33
2023-05-22T07:50:20.651Z,50.47
2023-05-22T07:52:53.088Z,49.88
2023-05-22T07:55:24.988Z,48.25
2023-05-22T07:57:57.045Z,48.91
2023-05-22T08:00:31.383Z,48.28
2023-05-22T08:03:03.447Z,48.43
2023-05-22T08:05:35.832Z,48.80
2023-05-22T08:08:07.978Z,48.72
2023-05-22T08:13:13.852Z,48.59
2023-05-22T08:15:45.854Z,48.21
2023-05-22T08:18:17.833Z,46.77
2023-05-22T08:20:51.509Z,46.15
2023-05-22T08:23:24.620Z,46.60
2023-05-22T08:25:57.009Z,46.68
2023-05-22T08:28:28.863Z,46.17
2023-05-22T08:31:00.711Z,46.35
2023-05-22T08:33:32.690Z,46.30
2023-05-22T08:36:04.650Z,47.07
2023-05-22T08:38:36.942Z,46.53
2023-05-22T08:41:09.605Z,46.31
2023-05-22T08:43:42.089Z,46.93
2023-05-22T08:46:15.736Z,46.29
2023-05-22T08:48:48.107Z,45.22
2023-05-22T08:51:20.605Z,45.77
2023-05-22T08:53:53.443Z,46.77
2023-05-22T08:56:27.860Z,46.43
2023-05-22T08:58:59.736Z,46.88
2023-05-22T09:01:39.556Z,46.14
2023-05-22T09:04:11.626Z,46.66
2023-05-22T09:06:43.447Z,46.14
2023-05-22T09:09:15.278Z,45.96
2023-05-22T09:11:47.216Z,45.12
2023-05-22T09:14:19.659Z,44.66
2023-05-22T09:16:53.128Z,44.70
2023-05-22T09:19:25.141Z,45.27
2023-05-22T09:22:04.868Z,45.61
2023-05-22T09:24:42.901Z,45.70
2023-05-22T09:27:14.736Z,46.07
2023-05-22T09:29:50.722Z,45.38
2023-05-22T09:32:24.198Z,45.82
2023-05-22T09:34:56.156Z,45.40
2023-05-22T09:37:29.000Z,45.74
2023-05-22T09:40:02.362Z,45.81
2023-05-22T09:42:35.536Z,45.57
2023-05-22T09:45:08.485Z,45.09
2023-05-22T09:47:40.990Z,45.25
2023-05-22T09:50:12.963Z,44.80
2023-05-22T09:52:47.041Z,43.90
2023-05-22T09:55:18.833Z,44.37
2023-05-22T09:57:52.608Z,45.21
2023-05-22T10:00:25.403Z,43.84
2023-05-22T10:03:05.801Z,44.04
2023-05-22T10:05:38.248Z,43.90
2023-05-22T10:08:13.027Z,43.71
2023-05-22T10:10:46.737Z,42.92
2023-05-22T10:13:19.020Z,42.06
2023-05-22T10:15:51.684Z,42.54
2023-05-22T10:18:24.024Z,42.27
2023-05-22T10:20:55.888Z,42.36
2023-05-22T10:23:29.643Z,42.78
2023-05-22T10:26:01.358Z,42.31
2023-05-22T10:28:39.333Z,42.76
2023-05-22T10:31:23.198Z,42.92
2023-05-22T10:34:14.401Z,42.51
2023-05-22T10:36:49.725Z,42.33
2023-05-22T10:39:40.253Z,42.88
2023-05-22T10:42:16.604Z,42.58
2023-05-22T10:44:49.985Z,41.74
2023-05-22T10:47:22.055Z,42.67
2023-05-22T10:49:55.755Z,43.00
2023-05-22T10:52:27.814Z,42.50
2023-05-22T10:55:02.105Z,43.46
2023-05-22T10:57:34.888Z,43.42
2023-05-22T11:00:11.888Z,43.12
2023-05-22T11:02:45.696Z,43.72
2023-05-22T11:05:26.349Z,43.72
2023-05-22T11:08:12.419Z,42.36
2023-05-22T11:10:56.463Z,42.16
2023-05-22T11:13:31.700Z,42.79
2023-05-22T11:16:06.742Z,43.81
2023-05-22T11:18:38.979Z,43.03
2023-05-22T11:21:12.393Z,41.69
2023-05-22T11:23:44.226Z,41.18
2023-05-22T11:26:25.330Z,40.74
2023-05-22T11:28:57.459Z,41.00
2023-05-22T11:31:30.203Z,41.36
2023-05-22T11:34:02.088Z,41.57
2023-05-22T11:36:33.960Z,41.92
2023-05-22T11:39:05.955Z,41.78
2023-05-22T11:41:38.004Z,42.42
2023-05-22T11:44:09.938Z,42.19
2023-05-22T11:46:42.480Z,42.07
2023-05-22T11:49:25.407Z,40.36
2023-05-22T11:51:57.234Z,41.17
2023-05-22T11:54:35.268Z,42.03
2023-05-22T11:57:09.362Z,42.42
2023-05-22T11:59:41.801Z,42.63
2023-05-22T12:02:14.675Z,43.33
2023-05-22T12:04:47.181Z,44.01
2023-05-22T12:07:19.248Z,43.90
2023-05-22T12:09:51.127Z,44.88
2023-05-22T12:12:23.566Z,44.60
2023-05-22T12:14:55.792Z,45.33
2023-05-22T12:17:28.356Z,45.23
2023-05-22T12:20:00.041Z,45.95
2023-05-22T12:22:31.888Z,46.05
2023-05-22T12:25:03.860Z,45.20
2023-05-22T12:27:38.495Z,45.30
2023-05-22T12:30:13.657Z,45.37
2023-05-22T12:32:52.355Z,45.92
2023-05-22T12:35:25.593Z,45.66
2023-05-22T12:37:57.612Z,45.78
2023-05-22T12:40:29.264Z,45.46
2023-05-22T12:43:01.085Z,45.79
2023-05-22T12:45:33.417Z,44.67
2023-05-22T12:48:05.747Z,44.23
2023-05-22T12:50:38.247Z,44.72
2023-05-22T12:53:10.285Z,44.53
2023-05-22T12:55:42.608Z,45.09
2023-05-22T12:58:14.286Z,45.45
2023-05-22T13:00:46.313Z,45.23
2023-05-22T13:03:18.333Z,45.47
2023-05-22T13:05:50.278Z,45.73
2023-05-22T13:08:23.706Z,45.88
2023-05-22T13:10:55.904Z,46.75
2023-05-22T13:13:27.888Z,46.53
2023-05-22T13:15:59.932Z,47.11
2023-05-22T13:18:32.261Z,47.87
2023-05-22T13:21:04.344Z,48.04
2023-05-22T13:23:36.239Z,47.99
2023-05-22T13:26:08.761Z,48.05
2023-05-22T13:28:41.035Z,48.42
2023-05-22T13:31:12.944Z,48.97
2023-05-22T13:33:44.923Z,49.41
2023-05-22T13:36:16.812Z,49.78
2023-05-22T13:38:49.261Z,50.00
2023-05-22T13:41:21.394Z,50.40
2023-05-22T13:43:53.364Z,50.58
2023-05-22T13:46:25.377Z,50.19
2023-05-22T13:48:57.579Z,50.74
2023-05-22T13:51:29.464Z,50.62
2023-05-22T13:54:01.387Z,50.87
2023-05-22T13:56:33.953Z,50.60
2023-05-22T13:59:08.388Z,50.58
2023-05-22T14:01:39.460Z,50.18
2023-05-22T14:04:11.572Z,49.94
2023-05-22T14:06:44.210Z,50.18
2023-05-22T14:09:16.266Z,50.53
2023-05-22T14:11:48.172Z,49.90
2023-05-22T14:14:21.856Z,50.15
2023-05-22T14:16:54.206Z,49.35
2023-05-22T14:19:26.373Z,48.80
2023-05-22T14:21:58.684Z,48.93
2023-05-22T14:24:30.736Z,49.66
2023-05-22T14:27:02.778Z,50.15
2023-05-22T14:29:35.661Z,50.07
2023-05-22T14:32:07.795Z,49.72
2023-05-22T14:34:40.902Z,49.58
2023-05-22T14:37:12.606Z,49.87
2023-05-22T14:39:44.888Z,50.08
2023-05-22T14:42:16.657Z,50.72
2023-05-22T14:44:48.353Z,50.72
2023-05-22T14:47:20.342Z,51.07
2023-05-22T14:49:57.652Z,51.77
2023-05-22T14:52:28.356Z,51.79
2023-05-22T14:55:00.297Z,52.19
2023-05-22T14:57:32.813Z,53.10
2023-05-22T15:00:09.911Z,54.01
2023-05-22T15:02:42.269Z,54.32
2023-05-22T15:05:15.192Z,54.49
2023-05-22T15:07:49.726Z,54.99
2023-05-22T15:10:21.279Z,55.14
2023-05-22T15:12:54.039Z,55.12
2023-05-22T15:15:26.063Z,55.63
2023-05-22T15:17:59.611Z,56.09
2023-05-22T15:20:31.764Z,56.47
2023-05-22T15:23:03.934Z,56.34
2023-05-22T15:25:36.937Z,56.74
2023-05-22T15:28:08.659Z,57.25
2023-05-22T15:30:44.019Z,57.46
2023-05-22T15:33:16.420Z,57.72
2023-05-22T15:35:48.919Z,58.05
2023-05-22T15:38:21.601Z,58.23
2023-05-22T15:40:53.362Z,58.50
2023-05-22T15:43:28.512Z,58.93
2023-05-22T15:46:00.720Z,59.22
2023-05-22T15:48:33.084Z,59.65
2023-05-22T15:51:07.057Z,60.24
2023-05-22T15:53:39.439Z,60.77
2023-05-22T15:56:11.162Z,61.42
2023-05-22T15:58:43.489Z,62.26
2023-05-22T16:01:15.815Z,62.75
2023-05-22T16:03:47.918Z,64.47
2023-05-22T16:06:20.006Z,65.95
2023-05-22T16:08:53.596Z,66.94
2023-05-22T16:11:26.132Z,67.83
2023-05-22T16:13:59.049Z,68.35
2023-05-22T16:16:31.152Z,68.94
2023-05-22T16:19:03.130Z,69.37
2023-05-22T16:21:36.032Z,70.11
2023-05-22T16:24:09.096Z,70.66
2023-05-22T16:26:40.865Z,71.27
2023-05-22T16:29:12.599Z,72.04
2023-05-22T16:31:44.725Z,72.32
2023-05-22T16:34:18.191Z,72.50
2023-05-22T16:36:50.253Z,72.75
2023-05-22T16:39:22.234Z,73.02
2023-05-22T16:41:54.134Z,73.25
2023-05-22T16:44:26.597Z,73.59
2023-05-22T16:46:58.676Z,73.96
2023-05-22T16:49:31.831Z,74.31
2023-05-22T16:52:04.306Z,74.45
2023-05-22T16:54:37.243Z,74.68
2023-05-22T16:57:09.420Z,74.78
2023-05-22T16:59:41.623Z,74.99
2023-05-22T17:02:14.239Z,75.04
2023-05-22T17:04:46.580Z,75.01
2023-05-22T17:07:18.771Z,74.98
2023-05-22T17:09:50.685Z,75.16
2023-05-22T17:12:23.301Z,75.16
2023-05-22T17:14:55.369Z,75.45
2023-05-22T17:17:27.421Z,75.83
2023-05-22T17:19:59.202Z,76.26
2023-05-22T17:22:31.253Z,76.77
2023-05-22T17:25:03.313Z,77.31
2023-05-22T17:27:36.805Z,77.95
2023-05-22T17:30:10.071Z,78.02
2023-05-22T17:32:41.823Z,78.11
2023-05-22T17:35:13.798Z,77.50
2023-05-22T17:37:46.031Z,77.30
2023-05-22T17:40:20.973Z,77.06
2023-05-22T17:42:54.104Z,77.07
2023-05-22T17:45:26.180Z,76.88
2023-05-22T17:47:58.370Z,76.81
2023-05-22T17:50:30.495Z,77.04
2023-05-22T17:53:03.435Z,77.08
2023-05-22T17:55:36.281Z,77.01
2023-05-22T17:58:08.491Z,77.19
2023-05-22T18:00:40.958Z,77.15
2023-05-22T18:03:13.718Z,77.19
2023-05-22T18:05:45.493Z,77.48
2023-05-22T18:08:17.961Z,77.73
2023-05-22T18:10:50.638Z,78.04
2023-05-22T18:13:22.250Z,78.28
2023-05-22T18:15:54.995Z,78.36
2023-05-22T18:18:27.735Z,78.80
2023-05-22T18:21:03.532Z,78.96
2023-05-22T18:23:35.582Z,79.27
2023-05-22T18:26:07.475Z,79.36
2023-05-22T18:28:39.650Z,79.60
2023-05-22T18:31:11.673Z,79.85
2023-05-22T18:33:46.664Z,79.93
2023-05-22T18:36:18.440Z,80.35
2023-05-22T18:38:50.471Z,80.26
2023-05-22T18:41:23.943Z,80.47
2023-05-22T18:43:55.659Z,80.73
2023-05-22T18:46:27.918Z,81.23
2023-05-22T18:48:59.811Z,81.39
2023-05-22T18:51:32.052Z,81.80
2023-05-22T18:54:04.378Z,81.98
2023-05-22T18:56:39.283Z,82.26
2023-05-22T18:59:11.786Z,82.65
2023-05-22T19:01:43.650Z,82.83
2023-05-22T19:04:15.665Z,83.05
2023-05-22T19:06:47.715Z,82.84
2023-05-22T19:09:19.612Z,82.87
2023-05-22T19:11:51.544Z,82.87
2023-05-22T19:14:23.538Z,82.78
2023-05-22T19:16:55.335Z,82.79
2023-05-22T19:19:27.790Z,82.48
2023-05-22T19:21:59.761Z,82.53
2023-05-22T19:24:32.366Z,82.42
2023-05-22T19:27:05.604Z,82.30
2023-05-22T19:29:37.511Z,82.31
2023-05-22T19:32:09.719Z,82.23
2023-05-22T19:34:41.527Z,82.23
2023-05-22T19:37:13.389Z,82.34
2023-05-22T19:39:45.289Z,82.56
2023-05-22T19:42:17.339Z,82.58
2023-05-22T19:44:49.426Z,82.83
2023-05-22T19:47:21.556Z,83.16
2023-05-22T19:49:53.406Z,83.60
2023-05-22T19:52:27.009Z,83.91
2023-05-22T19:54:59.301Z,84.19
2023-05-22T19:57:31.334Z,84.50
2023-05-22T20:00:04.765Z,84.79
2023-05-22T20:02:37.337Z,85.34
2023-05-22T20:05:12.425Z,85.69
2023-05-22T20:07:44.620Z,86.27
2023-05-22T20:10:17.446Z,86.49
2023-05-22T20:12:49.714Z,86.55
2023-05-22T20:15:22.898Z,86.74
2023-05-22T20:17:55.263Z,86.91
2023-05-22T20:20:27.378Z,87.26
2023-05-22T20:22:59.739Z,87.68
2023-05-22T20:25:31.782Z,88.68
2023-05-22T20:28:05.272Z,89.29
2023-05-22T20:30:36.877Z,90.32
2023-05-22T20:33:08.748Z,91.33
2023-05-22T20:35:41.359Z,92.31
2023-05-22T20:38:14.482Z,93.38
2023-05-22T20:40:48.211Z,93.82
2023-05-22T20:43:20.336Z,94.45
2023-05-22T20:45:52.283Z,94.67
2023-05-22T20:48:24.266Z,95.16
2023-05-22T20:50:56.074Z,95.78
2023-05-22T20:53:28.129Z,96.42
2023-05-22T20:56:00.255Z,97.39
2023-05-22T20:58:32.258Z,98.32
2023-05-22T21:01:04.337Z,98.86
2023-05-22T21:03:36.833Z,99.38
2023-05-22T21:06:08.800Z,99.82
2023-05-22T21:08:40.924Z,100.00
2023-05-22T21:11:13.254Z,100.00
2023-05-22T21:13:45.343Z,100.00
2023-05-22T21:16:17.112Z,100.00
2023-05-22T21:18:48.835Z,100.00
2023-05-22T21:21:23.318Z,100.00
2023-05-22T21:23:55.391Z,100.00
2023-05-22T21:26:27.713Z,100.00
2023-05-22T21:28:59.807Z,100.00
2023-05-22T21:31:34.520Z,100.00
2023-05-22T21:34:05.302Z,100.00
2023-05-22T21:36:37.521Z,100.00
2023-05-22T21:39:09.529Z,100.00
2023-05-22T21:41:41.552Z,100.00
2023-05-22T21:44:13.414Z,100.00
2023-05-22T21:46:45.438Z,100.00
2023-05-22T21:49:17.462Z,100.00
2023-05-22T21:51:49.232Z,100.00
2023-05-22T21:54:21.193Z,100.00
2023-05-22T21:56:53.328Z,100.00
2023-05-22T21:59:25.000Z,100.00
2023-05-22T22:01:57.026Z,100.00
2023-05-22T22:04:28.889Z,100.00
2023-05-22T22:07:00.963Z,100.00
2023-05-22T22:09:32.887Z,100.00
2023-05-22T22:12:04.927Z,100.00
2023-05-22T22:14:36.596Z,100.00
2023-05-22T22:17:08.168Z,100.00
2023-05-22T22:19:41.637Z,100.00
2023-05-22T22:22:13.236Z,100.00
2023-05-22T22:24:46.951Z,100.00
2023-05-22T22:27:19.860Z,100.00
2023-05-22T22:29:51.888Z,100.00
2023-05-22T22:32:23.981Z,100.00
2023-05-22T22:34:55.842Z,100.00
2023-05-22T22:37:27.402Z,100.00
2023-05-22T22:39:59.324Z,100.00
2023-05-22T22:42:32.909Z,100.00
2023-05-22T22:45:04.955Z,100.00
2023-05-22T22:47:37.697Z,100.00
2023-05-22T22:50:10.556Z,100.00
2023-05-22T22:52:45.771Z,100.00
2023-05-22T22:55:17.854Z,100.00
2023-05-22T22:57:50.303Z,100.00
2023-05-22T23:00:22.736Z,100.00
2023-05-22T23:02:54.664Z,100.00
2023-05-22T23:05:27.132Z,100.00
2023-05-22T23:08:00.446Z,100.00
2023-05-22T23:10:32.259Z,100.00
2023-05-22T23:13:04.200Z,100.00
2023-05-22T23:15:35.829Z,100.00
2023-05-22T23:18:07.898Z,100.00
2023-05-22T23:20:39.895Z,100.00
2023-05-22T23:23:11.491Z,100.00
2023-05-22T23:25:43.502Z,100.00
2023-05-22T23:28:17.011Z,100.00
2023-05-22T23:30:48.984Z,100.00
2023-05-22T23:33:21.456Z,100.00
2023-05-22T23:35:53.158Z,100.00
2023-05-22T23:38:24.711Z,100.00
2023-05-22T23:40:56.301Z,100.00
2023-05-22T23:43:29.225Z,100.00
2023-05-22T23:46:01.375Z,100.00
2023-05-22T23:48:33.152Z,100.00
2023-05-22T23:51:06.741Z,100.00
2023-05-22T23:53:38.583Z,100.00
2023-05-22T23:56:10.827Z,100.00
2023-05-22T23:58:42.751Z,100.00
